Time;durP1;ratioP1;P1;durP2;ratioP2;P2;SDS_P1;SDS_P2;PMS_P1;PMS_P2;Temp;Humidity;BMP_temperature;BMP_pressure;BME280_temperature;BME280_humidity;BME280_pressure;Samples;Min_cycle;Max_cycle;Signal;HPM_P1;HPM_P2
2023/04/17 00:01:54;;;;;;;34.05;23.00;;;8.50;99.90;;;;;;5110930;28;20681;-46
2023/04/17 00:04:20;;;;;;;38.80;23.50;;;8.40;99.90;;;;;;5110430;28;20112;-46
2023/04/17 00:06:46;;;;;;;39.03;23.15;;;8.50;99.90;;;;;;5110281;28;20036;-45
2023/04/17 00:09:12;;;;;;;37.22;24.48;;;8.50;99.90;;;;;;5110024;28;20042;-46
2023/04/17 00:11:37;;;;;;;32.15;21.90;;;8.40;99.90;;;;;;5109838;28;20028;-45
2023/04/17 00:14:03;;;;;;;34.20;21.95;;;8.40;99.90;;;;;;5091742;28;20036;-45
2023/04/17 00:16:29;;;;;;;29.27;21.52;;;8.40;99.90;;;;;;5110260;28;20055;-45
2023/04/17 00:18:55;;;;;;;32.88;22.05;;;8.40;99.90;;;;;;5110397;28;20080;-45
2023/04/17 00:21:20;;;;;;;35.20;23.42;;;8.30;99.90;;;;;;5110212;28;20023;-45
2023/04/17 00:23:46;;;;;;;34.67;22.70;;;8.30;99.90;;;;;;5110056;28;20096;-48
2023/04/17 00:26:12;;;;;;;35.05;22.00;;;8.30;99.90;;;;;;5109956;28;20537;-47
2023/04/17 00:28:37;;;;;;;31.00;21.90;;;8.20;99.90;;;;;;5109772;28;20382;-45
2023/04/17 00:31:04;;;;;;;36.67;22.90;;;8.20;99.90;;;;;;5109653;28;20028;-45
2023/04/17 00:33:31;;;;;;;45.45;23.60;;;8.20;99.90;;;;;;5109699;28;20028;-46
2023/04/17 00:35:56;;;;;;;33.72;21.58;;;8.20;99.90;;;;;;5091411;28;20032;-46
2023/04/17 00:38:22;;;;;;;29.52;21.00;;;8.20;99.90;;;;;;5109562;28;20102;-50
2023/04/17 00:40:47;;;;;;;36.33;23.00;;;8.20;99.90;;;;;;5109356;28;20053;-46
2023/04/17 00:43:13;;;;;;;36.03;22.63;;;8.20;99.90;;;;;;5109552;28;20036;-47
2023/04/17 00:45:40;;;;;;;31.98;22.20;;;8.10;99.90;;;;;;5109435;28;20107;-48
2023/04/17 00:48:07;;;;;;;27.67;19.50;;;8.10;99.90;;;;;;5109298;28;20423;-48
2023/04/17 00:50:34;;;;;;;32.53;19.42;;;8.10;99.90;;;;;;5109154;28;20100;-46
2023/04/17 00:53:00;;;;;;;30.10;20.40;;;8.10;99.90;;;;;;5109253;28;20085;-45
2023/04/17 00:55:29;;;;;;;30.17;21.08;;;8.00;99.90;;;;;;5109309;28;20028;-47
2023/04/17 00:57:55;;;;;;;31.70;20.23;;;8.00;99.90;;;;;;5109140;28;20755;-48
2023/04/17 01:00:21;;;;;;;28.77;20.33;;;8.00;99.90;;;;;;5109230;28;20479;-48
2023/04/17 01:02:46;;;;;;;30.63;19.67;;;8.00;99.90;;;;;;5109448;28;20111;-47
2023/04/17 01:05:12;;;;;;;32.13;19.80;;;8.00;99.90;;;;;;5109966;28;20107;-47
2023/04/17 01:07:40;;;;;;;30.10;18.58;;;8.00;99.90;;;;;;5109508;28;20031;-46
2023/04/17 01:10:06;;;;;;;25.35;18.50;;;7.90;99.90;;;;;;5109252;28;20081;-46
2023/04/17 01:12:31;;;;;;;31.98;18.85;;;7.90;99.90;;;;;;5109466;28;20015;-46
2023/04/17 01:14:57;;;;;;;35.53;21.00;;;7.80;99.90;;;;;;5109723;28;20019;-46
2023/04/17 01:17:26;;;;;;;30.20;20.20;;;7.90;99.90;;;;;;5109294;28;20016;-46
2023/04/17 01:19:53;;;;;;;28.73;18.10;;;7.90;99.90;;;;;;5108917;28;20042;-45
2023/04/17 01:22:22;;;;;;;29.58;19.60;;;7.90;99.90;;;;;;5108447;28;20080;-45
2023/04/17 01:24:48;;;;;;;34.13;20.35;;;7.90;99.90;;;;;;5109142;28;20024;-46
2023/04/17 01:27:14;;;;;;;29.38;18.70;;;7.80;99.90;;;;;;5108846;28;20031;-50
2023/04/17 01:29:40;;;;;;;25.85;18.17;;;7.80;99.90;;;;;;5108671;28;20591;-47
2023/04/17 01:32:06;;;;;;;30.73;19.65;;;7.80;99.90;;;;;;5108848;28;20024;-46
2023/04/17 01:34:32;;;;;;;31.05;20.15;;;7.80;99.90;;;;;;5109017;28;20028;-46
2023/04/17 01:36:57;;;;;;;30.55;18.90;;;7.70;99.90;;;;;;5108964;28;20080;-46
2023/04/17 01:39:23;;;;;;;28.88;18.75;;;7.70;99.90;;;;;;5108508;28;20143;-46
2023/04/17 01:41:50;;;;;;;28.58;19.17;;;7.70;99.90;;;;;;5109061;28;20047;-46
2023/04/17 01:44:16;;;;;;;33.92;20.17;;;7.70;99.90;;;;;;5108795;28;20499;-46
2023/04/17 01:46:41;;;;;;;29.13;18.63;;;7.70;99.90;;;;;;5108590;28;20023;-47
2023/04/17 01:49:07;;;;;;;30.40;18.95;;;7.70;99.90;;;;;;5108590;28;20073;-47
2023/04/17 01:51:32;;;;;;;30.05;18.13;;;7.60;99.90;;;;;;5108368;28;20055;-47
2023/04/17 01:53:58;;;;;;;30.58;19.88;;;7.70;99.90;;;;;;5108696;28;20100;-46
2023/04/17 01:56:24;;;;;;;28.98;18.27;;;7.60;99.90;;;;;;5108653;28;20032;-46
2023/04/17 01:58:50;;;;;;;31.13;19.63;;;7.70;99.90;;;;;;5108419;28;20514;-46
2023/04/17 02:01:16;;;;;;;31.75;19.08;;;7.60;99.90;;;;;;5108322;28;20024;-46
2023/04/17 02:03:41;;;;;;;31.30;19.70;;;7.60;99.90;;;;;;5108493;28;20054;-47
2023/04/17 02:06:07;;;;;;;27.50;17.27;;;7.60;99.90;;;;;;5090095;28;20105;-45
2023/04/17 02:08:33;;;;;;;31.38;18.30;;;7.60;99.90;;;;;;5108272;28;20767;-45
2023/04/17 02:10:59;;;;;;;35.22;20.30;;;7.60;99.90;;;;;;5108322;28;20122;-47
2023/04/17 02:13:24;;;;;;;26.63;18.50;;;7.60;99.90;;;;;;5108456;28;20090;-45
2023/04/17 02:15:50;;;;;;;34.15;20.23;;;7.60;99.90;;;;;;5108410;28;20033;-46
2023/04/17 02:18:15;;;;;;;26.35;17.33;;;7.50;99.90;;;;;;5107964;28;20103;-49
2023/04/17 02:20:41;;;;;;;26.30;17.00;;;7.50;99.90;;;;;;5106932;28;20476;-46
2023/04/17 02:23:07;;;;;;;35.03;18.10;;;7.50;99.90;;;;;;5108170;28;20068;-46
2023/04/17 02:25:33;;;;;;;27.67;17.00;;;7.50;99.90;;;;;;5108530;28;20024;-48
2023/04/17 02:27:59;;;;;;;25.55;17.55;;;7.50;99.90;;;;;;5108238;28;20446;-46
2023/04/17 02:30:25;;;;;;;26.05;17.13;;;7.50;99.90;;;;;;5104988;28;20613;-48
2023/04/17 02:32:53;;;;;;;25.88;17.75;;;7.50;99.90;;;;;;5108351;28;20107;-46
2023/04/17 02:35:23;;;;;;;25.50;16.75;;;7.50;99.90;;;;;;5110827;28;20020;-46
2023/04/17 02:37:48;;;;;;;29.10;18.48;;;7.50;99.90;;;;;;5112484;28;20580;-48
2023/04/17 02:40:14;;;;;;;25.10;16.75;;;7.50;99.90;;;;;;5112141;28;20124;-47
2023/04/17 02:42:40;;;;;;;23.17;16.85;;;7.50;99.90;;;;;;5112144;28;20555;-46
2023/04/17 02:45:06;;;;;;;25.45;16.15;;;7.50;99.90;;;;;;5111862;28;20027;-47
2023/04/17 02:47:32;;;;;;;24.17;15.98;;;7.40;99.90;;;;;;5111544;28;20027;-46
2023/04/17 02:49:59;;;;;;;27.30;17.75;;;7.40;99.90;;;;;;5111164;28;20023;-46
2023/04/17 02:52:26;;;;;;;26.55;16.25;;;7.40;99.90;;;;;;5111786;28;20094;-46
2023/04/17 02:54:51;;;;;;;28.40;18.27;;;7.40;99.90;;;;;;5111510;28;20697;-45
2023/04/17 02:57:17;;;;;;;30.38;18.20;;;7.40;99.90;;;;;;5111264;28;20051;-46
2023/04/17 02:59:42;;;;;;;27.77;16.33;;;7.40;99.90;;;;;;5111313;28;20079;-46
2023/04/17 03:02:08;;;;;;;24.63;15.50;;;7.40;99.90;;;;;;5111583;28;20081;-49
2023/04/17 03:04:34;;;;;;;29.83;17.27;;;7.40;99.90;;;;;;5111458;28;20497;-46
2023/04/17 03:07:00;;;;;;;23.58;15.65;;;7.40;99.90;;;;;;5111435;28;20642;-46
2023/04/17 03:09:26;;;;;;;24.88;15.88;;;7.40;99.90;;;;;;5111069;28;20101;-47
2023/04/17 03:11:51;;;;;;;22.90;16.15;;;7.40;99.90;;;;;;5111619;28;20528;-46
2023/04/17 03:14:17;;;;;;;28.55;16.13;;;7.40;99.90;;;;;;5111847;28;20035;-46
2023/04/17 03:16:42;;;;;;;28.00;16.10;;;7.30;99.90;;;;;;5111925;28;20112;-46
2023/04/17 03:19:08;;;;;;;23.17;15.98;;;7.30;99.90;;;;;;5111719;28;20538;-46
2023/04/17 03:21:33;;;;;;;25.67;16.77;;;7.30;99.90;;;;;;5111023;28;20023;-48
2023/04/17 03:23:59;;;;;;;29.17;17.67;;;7.30;99.90;;;;;;5111142;28;20061;-46
2023/04/17 03:26:25;;;;;;;25.95;17.38;;;7.30;99.90;;;;;;5092608;28;20061;-46
2023/04/17 03:28:50;;;;;;;24.75;16.10;;;7.30;99.90;;;;;;5110933;28;20652;-46
2023/04/17 03:31:16;;;;;;;29.30;16.73;;;7.30;99.90;;;;;;5111135;28;20024;-53
2023/04/17 03:33:41;;;;;;;27.40;16.67;;;7.30;99.90;;;;;;5110868;28;20520;-51
2023/04/17 03:36:07;;;;;;;26.95;16.67;;;7.30;99.90;;;;;;5110933;27;20019;-46
2023/04/17 03:38:34;;;;;;;25.25;16.00;;;7.20;99.90;;;;;;5112228;27;20027;-46
2023/04/17 03:41:00;;;;;;;27.73;16.10;;;7.20;99.90;;;;;;5114688;27;20016;-46
2023/04/17 03:43:26;;;;;;;24.75;15.50;;;7.30;99.90;;;;;;5114183;27;20079;-46
2023/04/17 03:45:51;;;;;;;27.15;16.58;;;7.20;99.90;;;;;;5112662;27;20055;-48
2023/04/17 03:48:17;;;;;;;27.15;15.23;;;7.20;99.90;;;;;;5112731;27;20038;-46
2023/04/17 03:50:42;;;;;;;25.17;16.40;;;7.30;99.90;;;;;;5112877;27;20031;-49
2023/04/17 03:53:08;;;;;;;24.50;15.82;;;7.20;99.90;;;;;;5115219;27;20023;-46
2023/04/17 03:55:34;;;;;;;25.08;16.65;;;7.20;99.90;;;;;;5112898;27;20384;-49
2023/04/17 03:58:00;;;;;;;23.98;17.10;;;7.20;99.90;;;;;;5112718;27;20110;-49
2023/04/17 04:00:26;;;;;;;24.90;16.05;;;7.20;99.90;;;;;;5112256;27;20034;-46
2023/04/17 04:02:51;;;;;;;25.88;16.27;;;7.20;99.90;;;;;;5116544;27;20027;-46
2023/04/17 04:05:17;;;;;;;28.30;16.98;;;7.20;99.90;;;;;;5095447;28;20042;-46
2023/04/17 04:07:42;;;;;;;24.63;17.30;;;7.20;99.90;;;;;;5112530;27;20065;-46
2023/04/17 04:10:09;;;;;;;25.30;15.57;;;7.10;99.90;;;;;;5107981;28;20111;-46
2023/04/17 04:12:34;;;;;;;24.33;15.90;;;7.10;99.90;;;;;;5110166;28;20039;-46
2023/04/17 04:15:00;;;;;;;30.27;17.60;;;7.20;99.90;;;;;;5117376;27;20016;-46
2023/04/17 04:17:25;;;;;;;32.10;17.58;;;7.20;99.90;;;;;;5128760;27;20045;-47
2023/04/17 04:19:51;;;;;;;30.23;17.60;;;7.10;99.90;;;;;;5110010;27;20031;-46
2023/04/17 04:22:17;;;;;;;27.33;16.85;;;7.10;99.90;;;;;;5128606;27;20060;-46
2023/04/17 04:24:43;;;;;;;25.95;16.83;;;7.10;99.90;;;;;;5128941;27;20498;-47
2023/04/17 04:27:09;;;;;;;32.03;19.15;;;7.10;99.90;;;;;;5128965;27;20031;-47
2023/04/17 04:29:36;;;;;;;26.35;17.13;;;7.10;99.90;;;;;;5128791;27;20019;-47
2023/04/17 04:32:02;;;;;;;24.10;16.95;;;7.20;99.90;;;;;;5128498;27;20039;-46
2023/04/17 04:34:28;;;;;;;29.92;17.67;;;7.10;99.90;;;;;;5128433;27;20507;-46
2023/04/17 04:36:57;;;;;;;24.95;16.73;;;7.20;99.90;;;;;;5129031;27;20098;-48
2023/04/17 04:39:23;;;;;;;27.58;17.98;;;7.20;99.90;;;;;;5128057;27;20087;-46
2023/04/17 04:41:50;;;;;;;28.10;17.10;;;7.20;99.90;;;;;;5128624;27;20026;-46
2023/04/17 04:44:19;;;;;;;28.67;18.40;;;7.10;99.90;;;;;;5128863;27;20027;-46
2023/04/17 04:46:45;;;;;;;22.33;16.40;;;7.20;99.90;;;;;;5128684;27;20023;-45
2023/04/17 04:49:11;;;;;;;29.45;18.45;;;7.10;99.90;;;;;;5128241;27;20028;-46
2023/04/17 04:51:37;;;;;;;26.92;19.35;;;7.10;99.90;;;;;;5125715;27;20015;-46
2023/04/17 04:54:03;;;;;;;30.40;18.45;;;7.10;99.90;;;;;;5107721;28;20101;-46
2023/04/17 04:56:29;;;;;;;26.08;17.90;;;7.10;99.90;;;;;;5110464;27;20035;-46
2023/04/17 04:58:55;;;;;;;31.52;18.70;;;7.20;99.90;;;;;;5091622;27;20400;-46
2023/04/17 05:01:21;;;;;;;30.00;18.15;;;7.20;99.90;;;;;;5110383;27;20485;-45
2023/04/17 05:03:46;;;;;;;30.92;19.60;;;7.10;99.90;;;;;;5111893;27;20019;-49
2023/04/17 05:06:12;;;;;;;34.00;20.60;;;7.20;99.90;;;;;;5109999;27;20068;-46
2023/04/17 05:08:39;;;;;;;29.38;18.98;;;7.20;99.90;;;;;;5109311;27;20035;-46
2023/04/17 05:11:05;;;;;;;37.17;23.45;;;7.20;99.90;;;;;;5109409;27;20041;-46
2023/04/17 05:13:31;;;;;;;35.03;24.30;;;7.30;99.90;;;;;;5093077;27;20073;-47
2023/04/17 05:15:56;;;;;;;38.33;23.40;;;7.30;99.90;;;;;;5108677;27;20024;-46
2023/04/17 05:18:22;;;;;;;39.67;22.75;;;7.30;99.90;;;;;;5107487;28;20034;-46
2023/04/17 05:20:48;;;;;;;38.20;24.20;;;7.30;99.90;;;;;;5107199;27;20027;-46
2023/04/17 05:23:14;;;;;;;38.83;23.55;;;7.40;99.90;;;;;;5107181;27;20484;-46
2023/04/17 05:25:39;;;;;;;42.75;24.40;;;7.40;99.90;;;;;;5107025;28;20030;-46
2023/04/17 05:28:06;;;;;;;39.92;23.25;;;7.50;99.90;;;;;;5106675;28;20099;-47
2023/04/17 05:30:32;;;;;;;44.88;23.85;;;7.50;99.90;;;;;;5088174;28;20118;-48
2023/04/17 05:32:59;;;;;;;37.25;23.42;;;7.60;99.90;;;;;;5086074;28;20023;-46
2023/04/17 05:35:26;;;;;;;31.65;22.38;;;7.60;99.90;;;;;;5106693;28;20285;-46
2023/04/17 05:37:52;;;;;;;38.35;21.58;;;7.60;99.90;;;;;;5106776;28;20068;-48
2023/04/17 05:40:18;;;;;;;35.60;20.92;;;7.70;99.90;;;;;;5106753;28;20034;-48
2023/04/17 05:42:43;;;;;;;34.20;21.05;;;7.70;99.90;;;;;;5107074;28;20036;-47
2023/04/17 05:45:13;;;;;;;35.00;21.42;;;7.70;99.90;;;;;;5106927;28;20027;-46
2023/04/17 05:47:39;;;;;;;32.80;20.70;;;7.70;99.90;;;;;;5106774;28;20556;-46
2023/04/17 05:50:05;;;;;;;30.45;19.75;;;7.80;99.90;;;;;;5106386;28;20023;-46
2023/04/17 05:52:31;;;;;;;35.80;22.38;;;7.90;99.90;;;;;;5105454;28;20448;-46
2023/04/17 05:54:56;;;;;;;33.55;20.73;;;7.90;99.90;;;;;;5106746;28;20102;-46
2023/04/17 05:57:22;;;;;;;35.30;21.05;;;8.00;99.90;;;;;;5102191;28;20135;-48
2023/04/17 05:59:48;;;;;;;34.30;20.83;;;8.20;99.90;;;;;;5125850;28;20643;-46
2023/04/17 06:02:14;;;;;;;30.58;21.17;;;8.20;99.90;;;;;;5110323;28;20024;-46
2023/04/17 06:04:41;;;;;;;35.88;23.17;;;8.30;99.90;;;;;;5106586;28;20024;-46
2023/04/17 06:07:06;;;;;;;30.77;20.20;;;8.30;99.90;;;;;;5106386;28;20094;-46
2023/04/17 06:09:32;;;;;;;31.80;21.15;;;8.30;99.90;;;;;;5108965;28;20153;-47
2023/04/17 06:11:58;;;;;;;28.45;20.02;;;8.40;99.90;;;;;;5110429;28;20015;-46
2023/04/17 06:14:23;;;;;;;33.58;21.35;;;8.50;99.90;;;;;;5110388;28;20132;-46
2023/04/17 06:16:49;;;;;;;32.47;21.63;;;8.60;99.90;;;;;;5092183;28;20089;-46
2023/04/17 06:19:15;;;;;;;32.15;20.85;;;8.70;99.90;;;;;;5121827;27;20369;-45
2023/04/17 06:21:40;;;;;;;35.90;22.63;;;8.90;99.90;;;;;;5109562;28;20043;-47
2023/04/17 06:24:06;;;;;;;36.83;20.88;;;8.90;99.90;;;;;;5110219;28;20067;-46
2023/04/17 06:26:31;;;;;;;30.17;18.45;;;9.00;99.90;;;;;;5110646;28;20498;-46
2023/04/17 06:28:57;;;;;;;29.20;19.67;;;9.10;99.90;;;;;;5110230;28;20020;-45
2023/04/17 06:31:22;;;;;;;27.15;18.80;;;9.10;99.90;;;;;;5110251;28;20597;-45
2023/04/17 06:33:49;;;;;;;35.22;20.95;;;9.10;99.90;;;;;;5110314;28;20384;-45
2023/04/17 06:36:15;;;;;;;30.23;19.42;;;9.20;99.90;;;;;;5110551;28;20525;-46
2023/04/17 06:38:40;;;;;;;31.08;19.25;;;9.20;99.90;;;;;;5109820;28;20019;-45
2023/04/17 06:41:06;;;;;;;25.75;17.98;;;9.20;99.90;;;;;;5110254;28;20088;-46
2023/04/17 06:43:31;;;;;;;33.15;20.45;;;9.30;99.90;;;;;;5110489;28;20073;-46
2023/04/17 06:45:57;;;;;;;36.67;20.60;;;9.30;99.90;;;;;;5091188;28;20122;-45
2023/04/17 06:48:22;;;;;;;37.00;20.63;;;9.30;99.90;;;;;;5091183;28;20040;-46
2023/04/17 06:50:48;;;;;;;33.85;20.73;;;9.30;99.90;;;;;;5109515;28;20015;-45
2023/04/17 06:53:14;;;;;;;26.05;17.90;;;9.20;99.90;;;;;;5109482;28;20458;-47
2023/04/17 06:55:39;;;;;;;28.73;17.95;;;9.20;99.90;;;;;;5109580;28;20216;-49
2023/04/17 06:58:07;;;;;;;31.08;19.67;;;9.30;99.90;;;;;;5109886;28;20384;-46
2023/04/17 07:00:32;;;;;;;33.00;20.50;;;9.30;99.90;;;;;;5110002;27;20075;-46
2023/04/17 07:02:58;;;;;;;30.17;19.88;;;9.30;99.90;;;;;;5110393;27;20571;-46
2023/04/17 07:05:24;;;;;;;29.33;19.92;;;9.40;99.90;;;;;;5091719;28;20035;-48
2023/04/17 07:07:49;;;;;;;33.45;21.45;;;9.60;99.90;;;;;;5110229;28;20028;-46
2023/04/17 07:10:18;;;;;;;30.15;19.30;;;9.60;99.90;;;;;;5109630;28;20503;-45
2023/04/17 07:12:43;;;;;;;29.98;19.67;;;9.80;99.90;;;;;;5109514;28;20398;-47
2023/04/17 07:15:09;;;;;;;36.55;23.65;;;9.90;99.90;;;;;;5109350;28;20023;-46
2023/04/17 07:17:35;;;;;;;34.10;20.90;;;9.90;99.90;;;;;;5108986;28;20024;-46
2023/04/17 07:20:01;;;;;;;32.30;19.73;;;9.90;99.90;;;;;;5107614;28;20035;-47
2023/04/17 07:22:27;;;;;;;33.40;20.15;;;10.10;99.90;;;;;;5109075;28;20028;-48
2023/04/17 07:24:53;;;;;;;29.23;19.02;;;10.30;99.90;;;;;;5109102;28;20030;-48
2023/04/17 07:27:18;;;;;;;25.83;17.25;;;10.40;99.90;;;;;;5109475;28;20122;-46
2023/04/17 07:29:46;;;;;;;28.23;18.27;;;10.50;99.90;;;;;;5109469;28;20192;-45
2023/04/17 07:32:12;;;;;;;27.75;18.58;;;10.70;99.90;;;;;;5109446;28;20042;-45
2023/04/17 07:34:40;;;;;;;23.45;16.88;;;10.90;99.90;;;;;;5109544;28;20041;-48
2023/04/17 07:37:05;;;;;;;33.75;20.85;;;10.90;99.90;;;;;;5108996;28;20047;-45
2023/04/17 07:39:31;;;;;;;27.80;18.02;;;10.90;99.90;;;;;;5090165;28;20085;-48
2023/04/17 07:41:56;;;;;;;29.65;21.13;;;10.80;99.90;;;;;;5127393;27;20550;-49
2023/04/17 07:44:22;;;;;;;30.38;19.88;;;10.80;99.90;;;;;;5129527;27;20031;-47
2023/04/17 07:46:47;;;;;;;32.40;18.55;;;11.00;99.90;;;;;;5109088;27;20051;-46
2023/04/17 07:49:13;;;;;;;29.27;18.40;;;11.10;99.90;;;;;;5108515;28;20509;-46
2023/04/17 07:51:39;;;;;;;30.42;18.08;;;11.20;99.90;;;;;;5108618;28;20034;-47
2023/04/17 07:54:05;;;;;;;28.77;18.88;;;11.20;99.90;;;;;;5109071;28;20024;-46
2023/04/17 07:56:33;;;;;;;27.48;18.52;;;11.20;99.90;;;;;;5108961;28;20349;-46
2023/04/17 07:58:59;;;;;;;27.85;17.52;;;11.20;99.90;;;;;;5108077;28;20633;-46
2023/04/17 08:01:25;;;;;;;30.80;20.40;;;11.30;99.90;;;;;;5108009;28;20031;-48
2023/04/17 08:03:51;;;;;;;29.85;22.50;;;11.40;99.90;;;;;;5087250;28;20028;-45
2023/04/17 08:06:17;;;;;;;25.58;17.77;;;11.40;99.90;;;;;;5107945;28;20501;-46
2023/04/17 08:08:46;;;;;;;32.60;22.83;;;11.40;99.90;;;;;;5090278;28;20054;-45
2023/04/17 08:11:12;;;;;;;34.40;24.45;;;11.70;99.90;;;;;;5087175;28;20027;-47
2023/04/17 08:13:38;;;;;;;28.45;20.23;;;11.80;99.90;;;;;;5108689;28;20012;-46
2023/04/17 08:16:04;;;;;;;31.40;20.38;;;11.90;99.90;;;;;;5085832;28;20285;-46
2023/04/17 08:18:31;;;;;;;25.48;16.83;;;11.90;99.90;;;;;;5107598;28;20069;-49
2023/04/17 08:20:56;;;;;;;29.88;18.67;;;12.10;99.90;;;;;;5107684;28;20114;-46
2023/04/17 08:23:22;;;;;;;33.80;18.58;;;12.10;99.90;;;;;;5108307;28;20110;-48
2023/04/17 08:25:47;;;;;;;24.77;17.05;;;12.30;99.90;;;;;;5089793;28;20412;-46
2023/04/17 08:28:13;;;;;;;26.20;17.75;;;12.40;99.90;;;;;;5107979;28;20028;-47
2023/04/17 08:30:38;;;;;;;23.30;17.83;;;12.40;99.90;;;;;;5108018;28;20032;-47
2023/04/17 08:33:04;;;;;;;28.33;19.63;;;12.60;99.90;;;;;;5088024;28;20027;-46
2023/04/17 08:35:29;;;;;;;29.33;20.30;;;12.80;99.90;;;;;;5097201;28;20463;-47
2023/04/17 08:37:57;;;;;;;22.45;15.77;;;13.00;99.90;;;;;;5098273;27;20067;-46
2023/04/17 08:40:25;;;;;;;19.55;14.45;;;13.50;99.90;;;;;;5106983;28;20024;-47
2023/04/17 08:42:51;;;;;;;21.45;15.70;;;14.30;99.90;;;;;;5107498;27;20088;-47
2023/04/17 08:45:19;;;;;;;21.90;15.52;;;14.90;99.90;;;;;;5106668;28;20035;-47
2023/04/17 08:47:45;;;;;;;18.17;13.48;;;15.20;99.90;;;;;;5106904;28;20111;-47
2023/04/17 08:50:13;;;;;;;16.45;11.13;;;16.30;98.40;;;;;;5088570;28;20139;-49
2023/04/17 08:52:43;;;;;;;16.40;11.75;;;17.40;92.80;;;;;;5107271;28;20404;-47
2023/04/17 08:55:15;;;;;;;18.88;10.70;;;18.60;91.40;;;;;;5107440;28;20077;-47
2023/04/17 08:57:53;;;;;;;21.02;12.10;;;19.60;88.80;;;;;;5107724;28;20020;-48
2023/04/17 09:00:27;;;;;;;17.15;10.85;;;21.20;77.80;;;;;;5089062;28;20028;-48
2023/04/17 09:02:55;;;;;;;13.77;10.35;;;22.40;71.40;;;;;;5109319;27;20030;-48
2023/04/17 09:05:22;;;;;;;12.82;10.00;;;23.70;66.60;;;;;;5106490;28;20050;-48
2023/04/17 09:07:49;;;;;;;15.63;9.60;;;24.40;61.50;;;;;;5088674;28;20027;-48
2023/04/17 09:10:15;;;;;;;12.77;9.98;;;25.20;63.60;;;;;;5107266;28;20468;-51
2023/04/17 09:12:58;;;;;;;13.70;10.63;;;26.70;57.40;;;;;;5098373;27;20074;-48
2023/04/17 09:15:24;;;;;;;15.38;10.65;;;27.30;52.10;;;;;;5080110;28;20118;-51
2023/04/17 09:17:50;;;;;;;14.95;9.77;;;25.60;54.00;;;;;;5106728;28;20098;-48
2023/04/17 09:20:16;;;;;;;13.85;10.80;;;24.10;57.70;;;;;;5107178;28;20544;-50
2023/04/17 09:22:42;;;;;;;13.48;10.88;;;22.70;58.30;;;;;;5107438;28;20865;-49
2023/04/17 09:25:19;;;;;;;15.95;10.65;;;22.40;61.90;;;;;;5107451;28;20028;-47
2023/04/17 09:27:45;;;;;;;15.75;11.10;;;21.70;61.70;;;;;;5106867;28;20369;-47
2023/04/17 09:30:12;;;;;;;17.70;10.93;;;21.30;62.80;;;;;;5106980;28;20059;-49
2023/04/17 09:32:41;;;;;;;13.43;9.73;;;21.50;62.30;;;;;;5107839;27;20020;-47
2023/04/17 09:35:07;;;;;;;17.15;9.52;;;21.70;62.80;;;;;;5127542;27;20035;-48
2023/04/17 09:37:53;;;;;;;11.65;8.73;;;22.30;61.20;;;;;;5127624;27;20027;-47
2023/04/17 09:40:20;;;;;;;12.70;9.38;;;23.00;60.30;;;;;;5127343;27;20523;-47
2023/04/17 09:42:56;;;;;;;10.80;8.10;;;22.50;58.10;;;;;;5127060;27;20026;-47
2023/04/17 09:45:23;;;;;;;10.93;9.25;;;23.00;57.50;;;;;;5127317;28;20019;-48
2023/04/17 09:47:54;;;;;;;10.52;8.85;;;23.40;57.30;;;;;;5124648;28;20027;-47
2023/04/17 09:50:21;;;;;;;10.25;7.38;;;24.00;53.10;;;;;;5106641;28;20039;-48
2023/04/17 09:52:52;;;;;;;14.98;8.48;;;24.70;52.60;;;;;;5104248;28;20099;-47
2023/04/17 09:55:22;;;;;;;9.43;6.78;;;25.70;50.70;;;;;;5105604;28;20026;-49
2023/04/17 09:57:49;;;;;;;;;;;27.20;51.10;;;;;;5103892;28;20070;-48
2023/04/17 10:00:17;;;;;;;13.85;8.07;;;27.60;47.00;;;;;;5103517;28;19953;-48
2023/04/17 10:02:44;;;;;;;9.35;7.25;;;26.80;47.30;;;;;;5105708;28;20023;-49
2023/04/17 10:05:10;;;;;;;13.55;7.85;;;26.60;46.20;;;;;;5105420;28;20134;-48
2023/04/17 10:07:37;;;;;;;13.52;8.48;;;26.90;47.90;;;;;;5105440;28;20032;-44
2023/04/17 10:10:08;;;;;;;12.85;7.20;;;27.60;48.70;;;;;;5102132;28;20488;-43
2023/04/17 10:12:35;;;;;;;11.70;7.68;;;28.10;48.30;;;;;;5104190;28;20252;-43
2023/04/17 10:15:03;;;;;;;10.88;7.40;;;29.10;44.00;;;;;;5101315;28;20064;-42
2023/04/17 10:17:31;;;;;;;11.60;8.13;;;28.40;44.20;;;;;;5104433;28;20016;-43
2023/04/17 10:20:16;;;;;;;18.75;7.82;;;29.00;42.50;;;;;;5106026;28;20028;-44
2023/04/17 10:22:42;;;;;;;16.98;7.65;;;29.20;43.20;;;;;;5105390;28;20031;-43
2023/04/17 10:25:14;;;;;;;9.10;6.60;;;28.90;43.00;;;;;;5106919;28;20095;-44
2023/04/17 10:27:39;;;;;;;10.05;7.55;;;29.10;45.40;;;;;;5087290;28;20020;-42
2023/04/17 10:30:09;;;;;;;10.13;7.00;;;28.80;41.40;;;;;;5106224;28;20028;-43
2023/04/17 10:32:35;;;;;;;12.07;7.72;;;28.90;40.60;;;;;;5105818;28;20020;-43
2023/04/17 10:35:21;;;;;;;13.30;8.40;;;28.50;42.90;;;;;;5106336;28;20110;-42
2023/04/17 10:37:49;;;;;;;13.55;9.30;;;28.60;44.20;;;;;;5085646;28;20030;-43
2023/04/17 10:40:28;;;;;;;10.48;8.20;;;28.90;42.40;;;;;;5106598;28;20229;-43
2023/04/17 10:43:05;;;;;;;20.37;10.77;;;28.50;44.20;;;;;;5105513;28;20467;-42
2023/04/17 10:45:59;;;;;;;9.25;8.35;;;28.60;42.90;;;;;;5105004;28;20050;-43
2023/04/17 10:48:27;;;;;;;11.70;8.40;;;28.90;42.10;;;;;;5102930;28;20036;-43
2023/04/17 10:50:53;;;;;;;13.85;8.60;;;28.90;43.10;;;;;;5106109;28;20094;-41
2023/04/17 10:53:42;;;;;;;13.32;8.45;;;28.70;43.90;;;;;;5087577;28;20035;-42
2023/04/17 10:56:09;;;;;;;14.60;8.25;;;29.00;41.10;;;;;;5106551;28;20016;-42
2023/04/17 10:58:53;;;;;;;12.38;9.30;;;28.80;43.50;;;;;;5109651;28;20076;-43
2023/04/17 11:01:19;;;;;;;12.70;8.93;;;28.30;43.00;;;;;;5090604;28;20032;-42
2023/04/17 11:03:45;;;;;;;11.63;8.32;;;28.20;43.10;;;;;;5110063;28;20023;-41
2023/04/17 11:06:12;;;;;;;9.88;8.02;;;27.80;45.40;;;;;;5109881;28;20080;-42
2023/04/17 11:08:37;;;;;;;11.70;9.38;;;26.80;45.70;;;;;;5109039;28;20053;-43
2023/04/17 11:11:03;;;;;;;16.58;8.68;;;26.00;45.80;;;;;;5108934;28;20814;-40
2023/04/17 11:13:32;;;;;;;12.30;9.25;;;26.20;46.40;;;;;;5109086;28;20031;-40
2023/04/17 11:15:58;;;;;;;9.20;8.07;;;25.70;44.30;;;;;;5109595;28;20015;-43
2023/04/17 11:18:25;;;;;;;10.02;8.05;;;25.50;46.90;;;;;;5109213;28;20032;-43
2023/04/17 11:20:51;;;;;;;11.45;7.75;;;25.80;43.30;;;;;;5109354;28;20022;-40
2023/04/17 11:23:17;;;;;;;9.88;8.25;;;25.30;43.80;;;;;;5109613;28;20039;-45
2023/04/17 11:25:43;;;;;;;12.68;7.93;;;25.80;44.40;;;;;;5109861;28;20143;-42
2023/04/17 11:28:10;;;;;;;12.40;8.35;;;27.40;45.10;;;;;;5109303;28;20131;-42
2023/04/17 11:30:39;;;;;;;17.25;8.38;;;28.00;41.90;;;;;;5109634;28;20031;-42
2023/04/17 11:33:06;;;;;;;16.77;8.73;;;27.80;42.60;;;;;;5109703;28;20073;-41
2023/04/17 11:35:42;;;;;;;12.55;7.93;;;27.30;41.50;;;;;;5110046;28;20051;-40
2023/04/17 11:38:20;;;;;;;13.02;9.25;;;27.40;42.40;;;;;;5109409;28;20055;-41
2023/04/17 11:40:48;;;;;;;14.93;8.98;;;27.00;44.10;;;;;;5108320;28;20485;-40
2023/04/17 11:43:14;;;;;;;11.57;8.52;;;26.70;43.10;;;;;;5108423;28;20469;-42
2023/04/17 11:45:42;;;;;;;13.23;8.82;;;25.10;43.80;;;;;;5108456;28;20030;-40
2023/04/17 11:48:10;;;;;;;13.43;10.25;;;24.70;45.00;;;;;;5104931;28;20032;-41
2023/04/17 11:50:35;;;;;;;13.88;10.60;;;23.70;48.40;;;;;;5088883;28;20537;-40
2023/04/17 11:53:04;;;;;;;16.98;9.55;;;23.20;49.90;;;;;;5107728;28;20032;-41
2023/04/17 11:55:30;;;;;;;18.17;9.35;;;23.00;50.40;;;;;;5105316;28;20029;-42
2023/04/17 11:58:06;;;;;;;13.30;9.23;;;22.80;47.70;;;;;;5107498;28;20111;-42
2023/04/17 12:00:33;;;;;;;13.18;8.50;;;21.90;49.10;;;;;;5088492;28;20589;-40
2023/04/17 12:03:23;;;;;;;14.77;8.10;;;21.40;49.60;;;;;;5088715;28;20134;-40
2023/04/17 12:05:58;;;;;;;16.83;9.65;;;21.20;50.60;;;;;;5105246;28;20095;-41
2023/04/17 12:08:24;;;;;;;13.45;9.95;;;22.40;51.20;;;;;;5106616;27;20031;-41
2023/04/17 12:10:49;;;;;;;14.27;8.85;;;22.40;49.10;;;;;;5107101;28;20312;-41
2023/04/17 12:13:15;;;;;;;12.68;9.75;;;22.40;50.00;;;;;;5106817;28;20114;-41
2023/04/17 12:15:40;;;;;;;15.32;8.88;;;22.40;49.30;;;;;;5106675;28;20028;-40
2023/04/17 12:18:08;;;;;;;15.43;9.80;;;22.10;49.10;;;;;;5106637;28;20024;-41
2023/04/17 12:20:35;;;;;;;14.45;9.43;;;21.30;49.70;;;;;;5088075;28;20493;-40
2023/04/17 12:23:00;;;;;;;20.33;9.75;;;20.30;51.30;;;;;;5106911;28;20031;-40
2023/04/17 12:25:26;;;;;;;14.40;9.30;;;20.60;51.50;;;;;;5106784;28;20038;-41
2023/04/17 12:27:51;;;;;;;22.67;9.10;;;21.00;51.40;;;;;;5106311;28;20028;-40
2023/04/17 12:30:17;;;;;;;13.77;8.10;;;21.20;53.60;;;;;;5106218;28;20337;-40
2023/04/17 12:32:47;;;;;;;11.75;8.10;;;21.40;50.80;;;;;;5106438;28;20110;-41
2023/04/17 12:35:14;;;;;;;11.77;8.38;;;21.30;50.00;;;;;;5106633;28;20016;-40